sensor_id;sensor_type;location;lat;lon;timestamp;temperature;humidity
19407;DHT22;9839;53.364;-1.204;2023-01-31T00:00:13;5.10;99.90
19407;DHT22;9839;53.364;-1.204;2023-01-31T00:02:38;5.10;99.90
19407;DHT22;9839;53.364;-1.204;2023-01-31T00:05:04;5.10;99.90
19407;DHT22;9839;53.364;-1.204;2023-01-31T00:07:30;5.20;99.90
19407;DHT22;9839;53.364;-1.204;2023-01-31T00:09:56;5.30;99.90
19407;DHT22;9839;53.364;-1.204;2023-01-31T00:12:21;5.40;99.90
19407;DHT22;9839;53.364;-1.204;2023-01-31T00:14:47;5.40;99.90
19407;DHT22;9839;53.364;-1.204;2023-01-31T00:17:13;5.40;99.90
19407;DHT22;9839;53.364;-1.204;2023-01-31T00:19:38;5.30;99.90
19407;DHT22;9839;53.364;-1.204;2023-01-31T00:22:04;5.30;99.90
19407;DHT22;9839;53.364;-1.204;2023-01-31T00:24:30;5.30;99.90
19407;DHT22;9839;53.364;-1.204;2023-01-31T00:26:55;5.30;99.90
19407;DHT22;9839;53.364;-1.204;2023-01-31T00:29:24;5.30;99.90
19407;DHT22;9839;53.364;-1.204;2023-01-31T00:31:50;5.30;99.90
19407;DHT22;9839;53.364;-1.204;2023-01-31T00:34:16;5.20;99.90
19407;DHT22;9839;53.364;-1.204;2023-01-31T00:36:42;5.20;99.90
19407;DHT22;9839;53.364;-1.204;2023-01-31T00:39:08;5.20;99.90
19407;DHT22;9839;53.364;-1.204;2023-01-31T00:41:36;5.20;99.90
19407;DHT22;9839;53.364;-1.204;2023-01-31T00:44:02;5.30;99.90
19407;DHT22;9839;53.364;-1.204;2023-01-31T00:46:28;5.30;99.90
19407;DHT22;9839;53.364;-1.204;2023-01-31T00:48:55;5.40;99.90
19407;DHT22;9839;53.364;-1.204;2023-01-31T00:51:22;5.50;99.90
19407;DHT22;9839;53.364;-1.204;2023-01-31T00:53:48;5.60;99.90
19407;DHT22;9839;53.364;-1.204;2023-01-31T00:56:19;5.60;99.90
19407;DHT22;9839;53.364;-1.204;2023-01-31T00:58:47;5.50;99.90
19407;DHT22;9839;53.364;-1.204;2023-01-31T01:01:22;5.50;99.90
19407;DHT22;9839;53.364;-1.204;2023-01-31T01:03:48;5.40;99.90
19407;DHT22;9839;53.364;-1.204;2023-01-31T01:06:14;5.40;99.90
19407;DHT22;9839;53.364;-1.204;2023-01-31T01:08:41;5.30;99.90
19407;DHT22;9839;53.364;-1.204;2023-01-31T01:11:11;5.30;99.90
19407;DHT22;9839;53.364;-1.204;2023-01-31T01:13:38;5.30;99.90
19407;DHT22;9839;53.364;-1.204;2023-01-31T01:16:10;5.40;99.90
19407;DHT22;9839;53.364;-1.204;2023-01-31T01:18:36;5.40;99.90
19407;DHT22;9839;53.364;-1.204;2023-01-31T01:21:14;5.30;99.90
19407;DHT22;9839;53.364;-1.204;2023-01-31T01:23:40;5.30;99.90
19407;DHT22;9839;53.364;-1.204;2023-01-31T01:26:22;5.30;99.90
19407;DHT22;9839;53.364;-1.204;2023-01-31T01:28:48;5.40;99.90
19407;DHT22;9839;53.364;-1.204;2023-01-31T01:31:16;5.40;99.90
19407;DHT22;9839;53.364;-1.204;2023-01-31T01:33:43;5.40;99.90
19407;DHT22;9839;53.364;-1.204;2023-01-31T01:36:11;5.50;99.90
19407;DHT22;9839;53.364;-1.204;2023-01-31T01:38:38;5.50;99.90
19407;DHT22;9839;53.364;-1.204;2023-01-31T01:41:05;5.40;99.90
19407;DHT22;9839;53.364;-1.204;2023-01-31T01:43:48;5.40;99.90
19407;DHT22;9839;53.364;-1.204;2023-01-31T01:46:33;5.40;99.90
19407;DHT22;9839;53.364;-1.204;2023-01-31T01:51:31;5.50;99.90
19407;DHT22;9839;53.364;-1.204;2023-01-31T01:54:00;5.60;99.90
19407;DHT22;9839;53.364;-1.204;2023-01-31T01:56:32;5.60;99.90
19407;DHT22;9839;53.364;-1.204;2023-01-31T02:01:27;5.70;99.90
19407;DHT22;9839;53.364;-1.204;2023-01-31T02:03:53;5.80;99.90
19407;DHT22;9839;53.364;-1.204;2023-01-31T02:06:19;5.90;99.90
19407;DHT22;9839;53.364;-1.204;2023-01-31T02:08:45;5.90;99.90
19407;DHT22;9839;53.364;-1.204;2023-01-31T02:11:21;6.00;99.90
19407;DHT22;9839;53.364;-1.204;2023-01-31T02:13:50;5.90;99.90
19407;DHT22;9839;53.364;-1.204;2023-01-31T02:16:16;5.90;99.90
19407;DHT22;9839;53.364;-1.204;2023-01-31T02:18:43;6.00;99.90
19407;DHT22;9839;53.364;-1.204;2023-01-31T02:36:03;5.90;99.90
19407;DHT22;9839;53.364;-1.204;2023-01-31T02:38:54;5.90;99.90
19407;DHT22;9839;53.364;-1.204;2023-01-31T02:41:42;5.90;99.90
19407;DHT22;9839;53.364;-1.204;2023-01-31T02:55:31;6.20;99.90
19407;DHT22;9839;53.364;-1.204;2023-01-31T02:58:19;6.10;99.90
19407;DHT22;9839;53.364;-1.204;2023-01-31T03:00:46;6.10;99.90
19407;DHT22;9839;53.364;-1.204;2023-01-31T03:03:19;6.10;99.90
19407;DHT22;9839;53.364;-1.204;2023-01-31T03:08:56;6.20;99.90
19407;DHT22;9839;53.364;-1.204;2023-01-31T03:11:27;6.20;99.90
19407;DHT22;9839;53.364;-1.204;2023-01-31T03:16:43;6.20;99.90
19407;DHT22;9839;53.364;-1.204;2023-01-31T03:19:35;6.20;99.90
19407;DHT22;9839;53.364;-1.204;2023-01-31T03:22:19;6.30;99.90
19407;DHT22;9839;53.364;-1.204;2023-01-31T03:24:49;6.30;99.90
19407;DHT22;9839;53.364;-1.204;2023-01-31T03:27:16;6.40;99.90
19407;DHT22;9839;53.364;-1.204;2023-01-31T03:29:43;6.40;99.90
19407;DHT22;9839;53.364;-1.204;2023-01-31T03:32:17;6.40;99.90
19407;DHT22;9839;53.364;-1.204;2023-01-31T03:34:45;6.40;99.90
19407;DHT22;9839;53.364;-1.204;2023-01-31T03:40:01;6.40;99.90
19407;DHT22;9839;53.364;-1.204;2023-01-31T03:42:50;6.50;99.90
19407;DHT22;9839;53.364;-1.204;2023-01-31T03:45:35;6.40;99.90
19407;DHT22;9839;53.364;-1.204;2023-01-31T03:48:03;6.50;99.90
19407;DHT22;9839;53.364;-1.204;2023-01-31T03:50:40;6.40;99.90
19407;DHT22;9839;53.364;-1.204;2023-01-31T03:53:12;6.40;99.90
19407;DHT22;9839;53.364;-1.204;2023-01-31T03:55:43;6.20;99.90
19407;DHT22;9839;53.364;-1.204;2023-01-31T03:58:12;6.20;99.90
19407;DHT22;9839;53.364;-1.204;2023-01-31T04:00:42;6.10;99.90
19407;DHT22;9839;53.364;-1.204;2023-01-31T04:03:20;6.10;99.90
19407;DHT22;9839;53.364;-1.204;2023-01-31T04:05:49;6.10;99.90
19407;DHT22;9839;53.364;-1.204;2023-01-31T04:08:15;6.20;99.90
19407;DHT22;9839;53.364;-1.204;2023-01-31T04:10:41;6.30;99.90
19407;DHT22;9839;53.364;-1.204;2023-01-31T04:13:07;6.20;99.90
19407;DHT22;9839;53.364;-1.204;2023-01-31T04:15:32;6.20;99.90
19407;DHT22;9839;53.364;-1.204;2023-01-31T04:17:58;6.30;99.90
19407;DHT22;9839;53.364;-1.204;2023-01-31T04:20:24;6.20;99.90
19407;DHT22;9839;53.364;-1.204;2023-01-31T04:22:50;6.20;99.90
19407;DHT22;9839;53.364;-1.204;2023-01-31T04:25:15;6.20;99.90
19407;DHT22;9839;53.364;-1.204;2023-01-31T04:27:41;6.30;99.90
19407;DHT22;9839;53.364;-1.204;2023-01-31T04:30:08;6.40;99.90
19407;DHT22;9839;53.364;-1.204;2023-01-31T04:32:33;6.50;99.90
19407;DHT22;9839;53.364;-1.204;2023-01-31T04:34:59;6.60;99.90
19407;DHT22;9839;53.364;-1.204;2023-01-31T04:37:25;6.70;99.90
19407;DHT22;9839;53.364;-1.204;2023-01-31T04:39:50;6.70;99.90
19407;DHT22;9839;53.364;-1.204;2023-01-31T04:42:16;6.80;99.90
19407;DHT22;9839;53.364;-1.204;2023-01-31T04:44:42;6.80;99.90
19407;DHT22;9839;53.364;-1.204;2023-01-31T04:47:08;6.90;99.90
19407;DHT22;9839;53.364;-1.204;2023-01-31T04:49:34;6.90;99.90
19407;DHT22;9839;53.364;-1.204;2023-01-31T04:51:59;6.90;99.90
19407;DHT22;9839;53.364;-1.204;2023-01-31T04:54:25;7.00;99.90
19407;DHT22;9839;53.364;-1.204;2023-01-31T04:56:51;7.00;99.90
19407;DHT22;9839;53.364;-1.204;2023-01-31T04:59:16;7.00;99.90
19407;DHT22;9839;53.364;-1.204;2023-01-31T05:01:42;7.00;99.90
19407;DHT22;9839;53.364;-1.204;2023-01-31T05:04:08;7.00;99.90
19407;DHT22;9839;53.364;-1.204;2023-01-31T05:06:34;7.10;99.90
19407;DHT22;9839;53.364;-1.204;2023-01-31T05:08:59;7.10;99.90
19407;DHT22;9839;53.364;-1.204;2023-01-31T05:11:26;7.10;99.90
19407;DHT22;9839;53.364;-1.204;2023-01-31T05:13:52;7.10;99.90
19407;DHT22;9839;53.364;-1.204;2023-01-31T05:16:18;7.10;99.90
19407;DHT22;9839;53.364;-1.204;2023-01-31T05:18:44;7.10;99.90
19407;DHT22;9839;53.364;-1.204;2023-01-31T05:21:10;7.00;99.90
19407;DHT22;9839;53.364;-1.204;2023-01-31T05:23:36;7.00;99.90
19407;DHT22;9839;53.364;-1.204;2023-01-31T05:26:02;7.00;99.90
19407;DHT22;9839;53.364;-1.204;2023-01-31T05:28:28;7.00;99.90
19407;DHT22;9839;53.364;-1.204;2023-01-31T05:31:01;7.00;99.90
19407;DHT22;9839;53.364;-1.204;2023-01-31T05:33:26;7.10;99.90
19407;DHT22;9839;53.364;-1.204;2023-01-31T05:35:52;7.10;99.90
19407;DHT22;9839;53.364;-1.204;2023-01-31T05:38:18;7.20;99.90
19407;DHT22;9839;53.364;-1.204;2023-01-31T05:40:44;7.10;99.90
19407;DHT22;9839;53.364;-1.204;2023-01-31T05:43:10;7.10;99.90
19407;DHT22;9839;53.364;-1.204;2023-01-31T05:45:36;7.10;99.90
19407;DHT22;9839;53.364;-1.204;2023-01-31T05:48:01;7.20;99.90
19407;DHT22;9839;53.364;-1.204;2023-01-31T05:50:27;7.20;99.90
19407;DHT22;9839;53.364;-1.204;2023-01-31T05:52:55;7.20;99.90
19407;DHT22;9839;53.364;-1.204;2023-01-31T05:55:24;7.30;99.90
19407;DHT22;9839;53.364;-1.204;2023-01-31T05:57:51;7.30;99.90
19407;DHT22;9839;53.364;-1.204;2023-01-31T06:00:17;7.30;99.90
19407;DHT22;9839;53.364;-1.204;2023-01-31T06:02:43;7.30;99.90
19407;DHT22;9839;53.364;-1.204;2023-01-31T06:05:10;7.30;99.90
19407;DHT22;9839;53.364;-1.204;2023-01-31T06:07:36;7.40;99.90
19407;DHT22;9839;53.364;-1.204;2023-01-31T06:10:03;7.40;99.90
19407;DHT22;9839;53.364;-1.204;2023-01-31T06:12:29;7.50;99.90
19407;DHT22;9839;53.364;-1.204;2023-01-31T06:14:55;7.60;99.90
19407;DHT22;9839;53.364;-1.204;2023-01-31T06:17:21;7.70;99.90
19407;DHT22;9839;53.364;-1.204;2023-01-31T06:19:48;7.80;99.90
19407;DHT22;9839;53.364;-1.204;2023-01-31T06:22:14;7.80;99.90
19407;DHT22;9839;53.364;-1.204;2023-01-31T06:24:40;7.90;99.90
19407;DHT22;9839;53.364;-1.204;2023-01-31T06:27:06;8.00;99.90
19407;DHT22;9839;53.364;-1.204;2023-01-31T06:29:31;8.10;99.90
19407;DHT22;9839;53.364;-1.204;2023-01-31T06:31:57;8.20;99.90
19407;DHT22;9839;53.364;-1.204;2023-01-31T06:34:23;8.20;99.90
19407;DHT22;9839;53.364;-1.204;2023-01-31T06:36:48;8.20;99.90
19407;DHT22;9839;53.364;-1.204;2023-01-31T06:39:14;8.30;99.90
19407;DHT22;9839;53.364;-1.204;2023-01-31T06:41:40;8.30;99.90
19407;DHT22;9839;53.364;-1.204;2023-01-31T06:44:06;8.30;99.90
19407;DHT22;9839;53.364;-1.204;2023-01-31T06:46:32;8.30;99.90
19407;DHT22;9839;53.364;-1.204;2023-01-31T06:48:58;8.30;99.90
19407;DHT22;9839;53.364;-1.204;2023-01-31T06:51:23;8.30;99.90
19407;DHT22;9839;53.364;-1.204;2023-01-31T06:53:49;8.30;99.90
19407;DHT22;9839;53.364;-1.204;2023-01-31T06:56:18;8.30;99.90
19407;DHT22;9839;53.364;-1.204;2023-01-31T06:58:44;8.30;99.90
19407;DHT22;9839;53.364;-1.204;2023-01-31T07:01:11;8.40;99.90
19407;DHT22;9839;53.364;-1.204;2023-01-31T07:03:37;8.40;99.90
19407;DHT22;9839;53.364;-1.204;2023-01-31T07:06:04;8.40;99.90
19407;DHT22;9839;53.364;-1.204;2023-01-31T07:08:31;8.30;99.90
19407;DHT22;9839;53.364;-1.204;2023-01-31T07:10:57;8.30;99.90
19407;DHT22;9839;53.364;-1.204;2023-01-31T07:13:23;8.20;99.90
19407;DHT22;9839;53.364;-1.204;2023-01-31T07:15:49;8.30;99.90
19407;DHT22;9839;53.364;-1.204;2023-01-31T07:18:15;8.30;99.90
19407;DHT22;9839;53.364;-1.204;2023-01-31T07:20:41;8.30;99.90
19407;DHT22;9839;53.364;-1.204;2023-01-31T07:23:07;8.20;99.90
19407;DHT22;9839;53.364;-1.204;2023-01-31T07:25:34;8.10;99.90
19407;DHT22;9839;53.364;-1.204;2023-01-31T07:28:01;8.00;99.90
19407;DHT22;9839;53.364;-1.204;2023-01-31T07:30:27;8.00;99.90
19407;DHT22;9839;53.364;-1.204;2023-01-31T07:32:53;7.90;99.90
19407;DHT22;9839;53.364;-1.204;2023-01-31T07:35:19;8.00;99.90
19407;DHT22;9839;53.364;-1.204;2023-01-31T07:37:45;8.00;99.90
19407;DHT22;9839;53.364;-1.204;2023-01-31T07:40:12;8.00;99.90
19407;DHT22;9839;53.364;-1.204;2023-01-31T07:42:39;8.00;99.90
19407;DHT22;9839;53.364;-1.204;2023-01-31T07:45:05;8.00;99.90
19407;DHT22;9839;53.364;-1.204;2023-01-31T07:47:31;8.10;99.90
19407;DHT22;9839;53.364;-1.204;2023-01-31T07:49:57;8.20;99.90
19407;DHT22;9839;53.364;-1.204;2023-01-31T07:52:23;8.20;99.90
19407;DHT22;9839;53.364;-1.204;2023-01-31T07:54:48;8.30;99.90
19407;DHT22;9839;53.364;-1.204;2023-01-31T07:57:14;8.30;99.90
19407;DHT22;9839;53.364;-1.204;2023-01-31T07:59:42;8.30;99.90
19407;DHT22;9839;53.364;-1.204;2023-01-31T08:02:11;8.40;99.90
19407;DHT22;9839;53.364;-1.204;2023-01-31T08:04:56;8.40;99.90
19407;DHT22;9839;53.364;-1.204;2023-01-31T08:07:21;8.50;99.90
19407;DHT22;9839;53.364;-1.204;2023-01-31T08:09:47;8.50;99.90
19407;DHT22;9839;53.364;-1.204;2023-01-31T08:12:15;8.60;99.90
19407;DHT22;9839;53.364;-1.204;2023-01-31T08:14:40;8.70;99.90
19407;DHT22;9839;53.364;-1.204;2023-01-31T08:17:06;8.70;99.90
19407;DHT22;9839;53.364;-1.204;2023-01-31T08:19:33;8.80;99.90
19407;DHT22;9839;53.364;-1.204;2023-01-31T08:21:59;8.80;99.90
19407;DHT22;9839;53.364;-1.204;2023-01-31T08:24:25;8.90;99.90
19407;DHT22;9839;53.364;-1.204;2023-01-31T08:26:51;8.90;99.90
19407;DHT22;9839;53.364;-1.204;2023-01-31T08:29:17;8.90;99.90
19407;DHT22;9839;53.364;-1.204;2023-01-31T08:31:42;8.80;99.90
19407;DHT22;9839;53.364;-1.204;2023-01-31T08:34:08;8.80;99.90
19407;DHT22;9839;53.364;-1.204;2023-01-31T08:36:34;8.70;99.90
19407;DHT22;9839;53.364;-1.204;2023-01-31T08:39:01;8.60;99.90
19407;DHT22;9839;53.364;-1.204;2023-01-31T08:41:27;8.50;99.90
19407;DHT22;9839;53.364;-1.204;2023-01-31T08:43:54;8.50;99.90
19407;DHT22;9839;53.364;-1.204;2023-01-31T08:46:27;8.40;99.90
19407;DHT22;9839;53.364;-1.204;2023-01-31T08:48:54;8.30;99.90
19407;DHT22;9839;53.364;-1.204;2023-01-31T08:51:20;8.30;99.90
19407;DHT22;9839;53.364;-1.204;2023-01-31T08:53:46;8.30;99.90
19407;DHT22;9839;53.364;-1.204;2023-01-31T08:56:13;8.30;99.90
19407;DHT22;9839;53.364;-1.204;2023-01-31T08:58:40;8.30;99.90
19407;DHT22;9839;53.364;-1.204;2023-01-31T09:01:08;8.30;99.90
19407;DHT22;9839;53.364;-1.204;2023-01-31T09:03:34;8.20;99.90
19407;DHT22;9839;53.364;-1.204;2023-01-31T09:06:01;8.30;99.90
19407;DHT22;9839;53.364;-1.204;2023-01-31T09:08:28;8.30;99.90
19407;DHT22;9839;53.364;-1.204;2023-01-31T09:10:54;8.30;99.90
19407;DHT22;9839;53.364;-1.204;2023-01-31T09:13:20;8.30;99.90
19407;DHT22;9839;53.364;-1.204;2023-01-31T09:15:55;8.40;99.90
19407;DHT22;9839;53.364;-1.204;2023-01-31T09:18:21;8.60;99.90
19407;DHT22;9839;53.364;-1.204;2023-01-31T09:20:47;8.60;99.90
19407;DHT22;9839;53.364;-1.204;2023-01-31T09:23:12;8.50;99.90
19407;DHT22;9839;53.364;-1.204;2023-01-31T09:25:38;8.50;99.90
19407;DHT22;9839;53.364;-1.204;2023-01-31T09:28:04;8.50;99.90
19407;DHT22;9839;53.364;-1.204;2023-01-31T09:30:29;8.60;99.90
19407;DHT22;9839;53.364;-1.204;2023-01-31T09:32:55;8.60;99.90
19407;DHT22;9839;53.364;-1.204;2023-01-31T09:35:21;8.50;99.90
19407;DHT22;9839;53.364;-1.204;2023-01-31T09:37:46;8.50;99.90
19407;DHT22;9839;53.364;-1.204;2023-01-31T09:40:20;8.40;99.90
19407;DHT22;9839;53.364;-1.204;2023-01-31T09:42:51;8.40;99.90
19407;DHT22;9839;53.364;-1.204;2023-01-31T09:47:51;8.50;99.90
19407;DHT22;9839;53.364;-1.204;2023-01-31T09:50:42;8.50;99.90
19407;DHT22;9839;53.364;-1.204;2023-01-31T09:53:16;8.50;99.90
19407;DHT22;9839;53.364;-1.204;2023-01-31T10:06:20;8.50;99.90
19407;DHT22;9839;53.364;-1.204;2023-01-31T10:09:03;8.50;99.90
19407;DHT22;9839;53.364;-1.204;2023-01-31T10:11:56;8.60;96.70
19407;DHT22;9839;53.364;-1.204;2023-01-31T10:14:34;8.70;95.90
19407;DHT22;9839;53.364;-1.204;2023-01-31T10:22:09;8.70;96.20
19407;DHT22;9839;53.364;-1.204;2023-01-31T10:25:00;8.70;97.00
19407;DHT22;9839;53.364;-1.204;2023-01-31T10:27:39;8.70;97.30
19407;DHT22;9839;53.364;-1.204;2023-01-31T10:30:21;8.80;97.40
19407;DHT22;9839;53.364;-1.204;2023-01-31T10:32:56;8.80;97.30
19407;DHT22;9839;53.364;-1.204;2023-01-31T10:35:32;8.90;97.90
19407;DHT22;9839;53.364;-1.204;2023-01-31T10:38:11;8.90;98.50
19407;DHT22;9839;53.364;-1.204;2023-01-31T10:40:41;8.90;99.00
19407;DHT22;9839;53.364;-1.204;2023-01-31T10:45:46;8.90;99.10
19407;DHT22;9839;53.364;-1.204;2023-01-31T10:48:20;9.00;98.60
19407;DHT22;9839;53.364;-1.204;2023-01-31T10:51:06;9.00;98.50
19407;DHT22;9839;53.364;-1.204;2023-01-31T10:58:46;8.80;99.10
19407;DHT22;9839;53.364;-1.204;2023-01-31T11:04:01;8.60;99.90
19407;DHT22;9839;53.364;-1.204;2023-01-31T11:06:27;8.60;99.90
19407;DHT22;9839;53.364;-1.204;2023-01-31T11:09:02;8.70;99.90
19407;DHT22;9839;53.364;-1.204;2023-01-31T11:11:28;8.60;99.90
19407;DHT22;9839;53.364;-1.204;2023-01-31T11:14:16;8.60;99.90
19407;DHT22;9839;53.364;-1.204;2023-01-31T11:16:42;8.80;99.90
19407;DHT22;9839;53.364;-1.204;2023-01-31T11:19:36;9.00;99.90
19407;DHT22;9839;53.364;-1.204;2023-01-31T11:22:03;9.20;99.80
19407;DHT22;9839;53.364;-1.204;2023-01-31T11:24:32;9.10;99.90
19407;DHT22;9839;53.364;-1.204;2023-01-31T11:27:05;9.20;99.20
19407;DHT22;9839;53.364;-1.204;2023-01-31T11:29:35;9.20;97.80
19407;DHT22;9839;53.364;-1.204;2023-01-31T11:32:05;9.20;97.20
19407;DHT22;9839;53.364;-1.204;2023-01-31T11:34:37;9.10;96.20
19407;DHT22;9839;53.364;-1.204;2023-01-31T11:37:13;9.10;95.90
19407;DHT22;9839;53.364;-1.204;2023-01-31T11:39:39;9.00;95.90
19407;DHT22;9839;53.364;-1.204;2023-01-31T11:42:15;8.90;93.10
19407;DHT22;9839;53.364;-1.204;2023-01-31T11:45:03;8.90;91.30
19407;DHT22;9839;53.364;-1.204;2023-01-31T11:50:03;8.90;92.00
19407;DHT22;9839;53.364;-1.204;2023-01-31T11:52:33;9.00;92.60
19407;DHT22;9839;53.364;-1.204;2023-01-31T11:55:07;9.10;91.50
19407;DHT22;9839;53.364;-1.204;2023-01-31T11:57:35;9.10;91.10
19407;DHT22;9839;53.364;-1.204;2023-01-31T12:00:15;9.00;90.90
19407;DHT22;9839;53.364;-1.204;2023-01-31T12:02:42;9.10;91.40
19407;DHT22;9839;53.364;-1.204;2023-01-31T12:05:16;9.20;90.90
19407;DHT22;9839;53.364;-1.204;2023-01-31T12:07:47;9.20;90.30
19407;DHT22;9839;53.364;-1.204;2023-01-31T12:10:39;9.20;90.40
19407;DHT22;9839;53.364;-1.204;2023-01-31T12:13:17;9.10;90.60
19407;DHT22;9839;53.364;-1.204;2023-01-31T12:15:48;9.20;90.70
19407;DHT22;9839;53.364;-1.204;2023-01-31T12:18:28;9.30;91.00
19407;DHT22;9839;53.364;-1.204;2023-01-31T12:24:10;9.40;91.00
19407;DHT22;9839;53.364;-1.204;2023-01-31T12:26:56;9.40;91.30
19407;DHT22;9839;53.364;-1.204;2023-01-31T12:34:50;9.20;90.90
19407;DHT22;9839;53.364;-1.204;2023-01-31T12:37:30;9.10;90.10
19407;DHT22;9839;53.364;-1.204;2023-01-31T12:50:47;9.60;83.90
19407;DHT22;9839;53.364;-1.204;2023-01-31T13:01:44;8.70;86.40
19407;DHT22;9839;53.364;-1.204;2023-01-31T13:07:08;8.80;80.20
19407;DHT22;9839;53.364;-1.204;2023-01-31T13:09:36;9.00;79.70
19407;DHT22;9839;53.364;-1.204;2023-01-31T13:12:06;9.30;78.90
19407;DHT22;9839;53.364;-1.204;2023-01-31T13:14:40;9.50;74.80
19407;DHT22;9839;53.364;-1.204;2023-01-31T13:17:12;9.60;74.80
19407;DHT22;9839;53.364;-1.204;2023-01-31T13:19:44;9.50;73.00
19407;DHT22;9839;53.364;-1.204;2023-01-31T13:22:16;9.40;72.70
19407;DHT22;9839;53.364;-1.204;2023-01-31T13:24:46;9.40;73.30
19407;DHT22;9839;53.364;-1.204;2023-01-31T13:27:22;9.30;71.20
19407;DHT22;9839;53.364;-1.204;2023-01-31T13:29:55;9.50;71.70
19407;DHT22;9839;53.364;-1.204;2023-01-31T13:32:28;9.50;70.70
19407;DHT22;9839;53.364;-1.204;2023-01-31T13:35:13;9.60;69.10
19407;DHT22;9839;53.364;-1.204;2023-01-31T13:37:43;9.60;69.10
19407;DHT22;9839;53.364;-1.204;2023-01-31T13:40:22;9.30;69.60
19407;DHT22;9839;53.364;-1.204;2023-01-31T13:42:49;9.20;71.80
19407;DHT22;9839;53.364;-1.204;2023-01-31T13:45:31;9.20;72.40
19407;DHT22;9839;53.364;-1.204;2023-01-31T13:48:07;9.10;72.40
19407;DHT22;9839;53.364;-1.204;2023-01-31T13:50:46;9.20;74.40
19407;DHT22;9839;53.364;-1.204;2023-01-31T13:53:21;9.30;73.30
19407;DHT22;9839;53.364;-1.204;2023-01-31T13:55:50;9.20;75.70
19407;DHT22;9839;53.364;-1.204;2023-01-31T14:01:02;9.50;77.50
19407;DHT22;9839;53.364;-1.204;2023-01-31T14:03:29;9.30;78.40
19407;DHT22;9839;53.364;-1.204;2023-01-31T14:05:56;9.30;78.00
19407;DHT22;9839;53.364;-1.204;2023-01-31T14:13:47;9.50;75.90
19407;DHT22;9839;53.364;-1.204;2023-01-31T14:16:33;9.60;75.50
19407;DHT22;9839;53.364;-1.204;2023-01-31T14:19:00;9.70;74.40
19407;DHT22;9839;53.364;-1.204;2023-01-31T14:23:55;9.40;72.00
19407;DHT22;9839;53.364;-1.204;2023-01-31T14:29:09;9.10;74.60
19407;DHT22;9839;53.364;-1.204;2023-01-31T14:31:39;8.90;75.80
19407;DHT22;9839;53.364;-1.204;2023-01-31T14:34:21;8.80;74.80
19407;DHT22;9839;53.364;-1.204;2023-01-31T14:39:26;9.00;72.80
19407;DHT22;9839;53.364;-1.204;2023-01-31T14:48:01;8.90;74.50
19407;DHT22;9839;53.364;-1.204;2023-01-31T14:53:26;8.80;75.40
19407;DHT22;9839;53.364;-1.204;2023-01-31T14:58:26;8.80;74.30
19407;DHT22;9839;53.364;-1.204;2023-01-31T15:00:56;8.70;73.20
19407;DHT22;9839;53.364;-1.204;2023-01-31T15:03:35;8.60;72.90
19407;DHT22;9839;53.364;-1.204;2023-01-31T15:06:08;8.60;74.70
19407;DHT22;9839;53.364;-1.204;2023-01-31T15:08:38;8.50;76.60
19407;DHT22;9839;53.364;-1.204;2023-01-31T15:13:49;8.40;78.90
19407;DHT22;9839;53.364;-1.204;2023-01-31T15:16:34;8.50;79.30
19407;DHT22;9839;53.364;-1.204;2023-01-31T15:19:15;8.40;78.90
19407;DHT22;9839;53.364;-1.204;2023-01-31T15:21:47;8.40;79.00
19407;DHT22;9839;53.364;-1.204;2023-01-31T15:26:56;8.30;77.50
19407;DHT22;9839;53.364;-1.204;2023-01-31T15:29:26;8.20;76.70
19407;DHT22;9839;53.364;-1.204;2023-01-31T15:31:57;8.20;78.50
19407;DHT22;9839;53.364;-1.204;2023-01-31T15:34:30;8.20;79.10
19407;DHT22;9839;53.364;-1.204;2023-01-31T15:37:13;8.20;78.10
19407;DHT22;9839;53.364;-1.204;2023-01-31T15:39:54;8.10;78.80
19407;DHT22;9839;53.364;-1.204;2023-01-31T15:42:27;8.10;80.20
19407;DHT22;9839;53.364;-1.204;2023-01-31T15:45:24;8.00;81.60
19407;DHT22;9839;53.364;-1.204;2023-01-31T15:48:04;8.00;83.20
19407;DHT22;9839;53.364;-1.204;2023-01-31T15:50:33;7.90;84.20
19407;DHT22;9839;53.364;-1.204;2023-01-31T15:53:04;7.90;85.20
19407;DHT22;9839;53.364;-1.204;2023-01-31T15:55:31;7.80;86.00
19407;DHT22;9839;53.364;-1.204;2023-01-31T15:58:00;7.80;84.90
19407;DHT22;9839;53.364;-1.204;2023-01-31T16:00:27;7.80;85.10
19407;DHT22;9839;53.364;-1.204;2023-01-31T16:02:54;7.70;85.70
19407;DHT22;9839;53.364;-1.204;2023-01-31T16:05:30;7.60;87.00
19407;DHT22;9839;53.364;-1.204;2023-01-31T16:08:02;7.60;88.10
19407;DHT22;9839;53.364;-1.204;2023-01-31T16:10:29;7.60;88.60
19407;DHT22;9839;53.364;-1.204;2023-01-31T16:12:57;7.60;88.90
19407;DHT22;9839;53.364;-1.204;2023-01-31T16:15:28;7.60;90.10
19407;DHT22;9839;53.364;-1.204;2023-01-31T16:17:57;7.50;90.30
19407;DHT22;9839;53.364;-1.204;2023-01-31T16:20:46;7.40;90.70
19407;DHT22;9839;53.364;-1.204;2023-01-31T16:23:26;7.40;91.30
19407;DHT22;9839;53.364;-1.204;2023-01-31T16:26:14;7.40;91.30
19407;DHT22;9839;53.364;-1.204;2023-01-31T16:28:51;7.30;91.90
19407;DHT22;9839;53.364;-1.204;2023-01-31T16:31:20;7.20;92.50
19407;DHT22;9839;53.364;-1.204;2023-01-31T16:33:59;7.20;92.70
19407;DHT22;9839;53.364;-1.204;2023-01-31T16:36:57;7.10;93.30
19407;DHT22;9839;53.364;-1.204;2023-01-31T16:39:46;7.10;93.90
19407;DHT22;9839;53.364;-1.204;2023-01-31T16:44:46;6.90;94.80
19407;DHT22;9839;53.364;-1.204;2023-01-31T16:53:23;6.70;96.60
19407;DHT22;9839;53.364;-1.204;2023-01-31T16:58:45;6.60;97.30
19407;DHT22;9839;53.364;-1.204;2023-01-31T17:01:15;6.40;97.90
19407;DHT22;9839;53.364;-1.204;2023-01-31T17:03:41;6.30;98.20
19407;DHT22;9839;53.364;-1.204;2023-01-31T17:06:07;6.30;98.40
19407;DHT22;9839;53.364;-1.204;2023-01-31T17:08:39;6.20;98.70
19407;DHT22;9839;53.364;-1.204;2023-01-31T17:11:08;6.20;98.90
19407;DHT22;9839;53.364;-1.204;2023-01-31T17:13:35;6.10;98.70
19407;DHT22;9839;53.364;-1.204;2023-01-31T17:16:01;6.20;98.90
19407;DHT22;9839;53.364;-1.204;2023-01-31T17:18:27;6.30;98.20
19407;DHT22;9839;53.364;-1.204;2023-01-31T17:20:53;6.50;97.30
19407;DHT22;9839;53.364;-1.204;2023-01-31T17:23:19;6.50;96.80
19407;DHT22;9839;53.364;-1.204;2023-01-31T17:25:45;6.70;96.40
19407;DHT22;9839;53.364;-1.204;2023-01-31T17:28:11;6.60;96.40
19407;DHT22;9839;53.364;-1.204;2023-01-31T17:30:39;6.70;96.50
19407;DHT22;9839;53.364;-1.204;2023-01-31T17:33:05;6.80;96.00
19407;DHT22;9839;53.364;-1.204;2023-01-31T17:35:40;6.80;95.80
19407;DHT22;9839;53.364;-1.204;2023-01-31T17:38:06;6.70;96.30
19407;DHT22;9839;53.364;-1.204;2023-01-31T17:40:32;6.70;96.40
19407;DHT22;9839;53.364;-1.204;2023-01-31T17:43:02;6.70;96.40
19407;DHT22;9839;53.364;-1.204;2023-01-31T17:45:29;6.70;96.50
19407;DHT22;9839;53.364;-1.204;2023-01-31T17:47:55;6.60;97.10
19407;DHT22;9839;53.364;-1.204;2023-01-31T17:50:23;6.50;97.40
19407;DHT22;9839;53.364;-1.204;2023-01-31T17:52:49;6.50;97.20
19407;DHT22;9839;53.364;-1.204;2023-01-31T17:55:16;6.40;97.50
19407;DHT22;9839;53.364;-1.204;2023-01-31T17:57:43;6.50;97.10
19407;DHT22;9839;53.364;-1.204;2023-01-31T18:00:11;6.50;96.80
19407;DHT22;9839;53.364;-1.204;2023-01-31T18:02:37;6.50;97.00
19407;DHT22;9839;53.364;-1.204;2023-01-31T18:05:07;6.50;97.10
19407;DHT22;9839;53.364;-1.204;2023-01-31T18:07:33;6.50;97.20
19407;DHT22;9839;53.364;-1.204;2023-01-31T18:09:59;6.50;97.10
19407;DHT22;9839;53.364;-1.204;2023-01-31T18:12:25;6.50;97.40
19407;DHT22;9839;53.364;-1.204;2023-01-31T18:14:52;6.50;97.40
19407;DHT22;9839;53.364;-1.204;2023-01-31T18:17:18;6.50;97.30
19407;DHT22;9839;53.364;-1.204;2023-01-31T18:19:44;6.60;97.40
19407;DHT22;9839;53.364;-1.204;2023-01-31T18:22:10;6.60;97.20
19407;DHT22;9839;53.364;-1.204;2023-01-31T18:24:36;6.70;96.90
19407;DHT22;9839;53.364;-1.204;2023-01-31T18:27:04;6.80;97.00